createdAt,value
2018-08-11T00:00:58.692Z,0
2018-08-11T00:02:08.136Z,0
2018-08-11T00:03:17.110Z,0
2018-08-11T00:04:26.634Z,0
2018-08-11T00:05:36.038Z,0
2018-08-11T00:06:44.932Z,0
2018-08-11T00:07:54.179Z,0
2018-08-11T00:09:03.597Z,0
2018-08-11T00:10:13.041Z,0
2018-08-11T00:11:22.769Z,0
2018-08-11T00:12:32.488Z,0
2018-08-11T00:13:41.915Z,0
2018-08-11T00:14:51.855Z,0
2018-08-11T00:16:01.019Z,0
2018-08-11T00:17:09.928Z,0
2018-08-11T00:18:19.402Z,0
2018-08-11T00:19:28.813Z,0
2018-08-11T00:20:37.721Z,0
2018-08-11T00:21:46.934Z,0
2018-08-11T00:22:55.833Z,0
2018-08-11T00:24:04.970Z,0
2018-08-11T00:25:14.397Z,0
2018-08-11T00:26:23.373Z,0
2018-08-11T00:27:32.270Z,0
2018-08-11T00:28:41.425Z,0
2018-08-11T00:29:50.594Z,0
2018-08-11T00:31:00.030Z,0
2018-08-11T00:32:09.443Z,0
2018-08-11T00:33:18.642Z,0
2018-08-11T00:34:28.076Z,0
2018-08-11T00:35:37.752Z,0
2018-08-11T00:36:47.433Z,0
2018-08-11T00:37:56.335Z,0
2018-08-11T00:39:05.759Z,0
2018-08-11T00:40:15.427Z,0
2018-08-11T00:41:24.613Z,0
2018-08-11T00:42:33.778Z,0
2018-08-11T00:43:42.915Z,0
2018-08-11T00:44:52.330Z,0
2018-08-11T00:46:01.747Z,0
2018-08-11T00:47:10.689Z,0
2018-08-11T00:48:19.900Z,0
2018-08-11T00:49:29.654Z,0
2018-08-11T00:50:39.468Z,0
2018-08-11T00:51:49.137Z,0
2018-08-11T00:52:58.303Z,0
2018-08-11T00:54:07.523Z,0
2018-08-11T00:55:16.705Z,0
2018-08-11T00:56:25.862Z,0
2018-08-11T00:57:35.559Z,0
2018-08-11T00:58:44.704Z,0
2018-08-11T00:59:53.879Z,0
2018-08-11T01:01:03.079Z,0
2018-08-11T01:02:12.554Z,0
2018-08-11T01:03:22.006Z,0
2018-08-11T01:04:31.172Z,0
2018-08-11T01:05:40.341Z,0
2018-08-11T01:06:50.065Z,0
2018-08-11T01:07:59.763Z,0
2018-08-11T01:09:08.969Z,0
2018-08-11T01:10:18.122Z,0
2018-08-11T01:11:26.816Z,0
2018-08-11T01:12:36.762Z,0
2018-08-11T01:13:45.722Z,0
2018-08-11T01:14:55.393Z,0
2018-08-11T01:16:05.062Z,0
2018-08-11T01:17:14.237Z,0
2018-08-11T01:18:23.946Z,0
2018-08-11T01:19:33.102Z,0
2018-08-11T01:20:43.057Z,0
2018-08-11T01:21:52.467Z,0
2018-08-11T01:23:01.914Z,0
2018-08-11T01:24:10.818Z,0
2018-08-11T01:25:19.968Z,0
2018-08-11T01:26:29.423Z,0
2018-08-11T01:27:39.363Z,0
2018-08-11T01:28:48.885Z,0
2018-08-11T01:29:57.815Z,0
2018-08-11T01:31:06.968Z,0
2018-08-11T01:32:16.663Z,0
2018-08-11T01:33:26.075Z,0
2018-08-11T01:34:35.497Z,0
2018-08-11T01:35:45.160Z,0
2018-08-11T01:36:54.588Z,0
2018-08-11T01:38:03.759Z,0
2018-08-11T01:39:13.167Z,0
2018-08-11T01:40:22.593Z,0
2018-08-11T01:41:32.277Z,0
2018-08-11T01:42:41.447Z,0
2018-08-11T01:43:50.914Z,0
2018-08-11T01:45:00.322Z,0
2018-08-11T01:46:09.530Z,0
2018-08-11T01:47:18.465Z,0
2018-08-11T01:48:27.609Z,0
2018-08-11T01:49:37.019Z,0
2018-08-11T01:50:46.438Z,0
2018-08-11T01:51:55.071Z,0
2018-08-11T01:53:04.234Z,0
2018-08-11T01:54:14.193Z,0
2018-08-11T01:55:23.882Z,0
2018-08-11T01:56:33.037Z,0
2018-08-11T01:57:42.199Z,0
2018-08-11T01:58:51.358Z,0
2018-08-11T02:00:01.110Z,0
2018-08-11T02:01:09.742Z,0
2018-08-11T02:02:18.649Z,0
2018-08-11T02:03:27.543Z,0
2018-08-11T02:04:37.082Z,0
2018-08-11T02:05:47.002Z,0
2018-08-11T02:06:56.709Z,0
2018-08-11T02:08:05.888Z,0
2018-08-11T02:09:15.338Z,0
2018-08-11T02:10:24.255Z,0
2018-08-11T02:11:33.437Z,0
2018-08-11T02:12:42.597Z,0
2018-08-11T02:13:52.108Z,0
2018-08-11T02:15:01.250Z,0
2018-08-11T02:16:10.466Z,0
2018-08-11T02:17:19.903Z,0
2018-08-11T02:18:28.795Z,0
2018-08-11T02:19:37.959Z,0
2018-08-11T02:20:47.189Z,0
2018-08-11T02:21:56.347Z,0
2018-08-11T02:23:05.768Z,0
2018-08-11T02:24:14.762Z,0
2018-08-11T02:25:24.184Z,0
2018-08-11T02:26:33.595Z,0
2018-08-11T02:27:43.092Z,0
2018-08-11T02:28:52.504Z,0
2018-08-11T02:30:01.952Z,0
2018-08-11T02:31:11.644Z,0
2018-08-11T02:32:21.400Z,0
2018-08-11T02:33:31.061Z,0
2018-08-11T02:34:41.004Z,0
2018-08-11T02:35:50.681Z,0
2018-08-11T02:36:59.848Z,0
2018-08-11T02:38:09.267Z,0
2018-08-11T02:39:19.009Z,0
2018-08-11T02:40:27.917Z,0
2018-08-11T02:41:37.604Z,0
2018-08-11T02:42:47.266Z,0
2018-08-11T02:43:56.463Z,0
2018-08-11T02:45:06.147Z,0
2018-08-11T02:46:15.840Z,0
2018-08-11T02:47:25.792Z,0
2018-08-11T02:48:35.536Z,0
2018-08-11T02:49:45.493Z,0
2018-08-11T02:50:55.189Z,0
2018-08-11T02:52:04.350Z,0
2018-08-11T02:53:13.840Z,0
2018-08-11T02:54:23.519Z,0
2018-08-11T02:55:32.935Z,0
2018-08-11T02:56:42.614Z,0
2018-08-11T02:57:52.133Z,0
2018-08-11T02:59:01.547Z,0
2018-08-11T03:00:11.532Z,0
2018-08-11T03:01:20.689Z,0
2018-08-11T03:02:29.715Z,0
2018-08-11T03:03:39.719Z,0
2018-08-11T03:04:49.162Z,0
2018-08-11T03:05:58.357Z,0
2018-08-11T03:07:07.778Z,0
2018-08-11T03:08:17.213Z,0
2018-08-11T03:09:26.669Z,0
2018-08-11T03:10:36.128Z,0
2018-08-11T03:11:45.297Z,0
2018-08-11T03:12:55.259Z,0
2018-08-11T03:14:05.004Z,0
2018-08-11T03:15:14.950Z,0
2018-08-11T03:16:24.617Z,0
2018-08-11T03:17:33.566Z,0
2018-08-11T03:18:43.504Z,0
2018-08-11T03:19:52.692Z,0
2018-08-11T03:21:01.963Z,0
2018-08-11T03:22:11.656Z,0
2018-08-11T03:23:21.412Z,0
2018-08-11T03:24:30.824Z,0
2018-08-11T03:25:40.816Z,0
2018-08-11T03:26:50.488Z,0
2018-08-11T03:28:00.155Z,0
2018-08-11T03:29:09.316Z,0
2018-08-11T03:30:19.068Z,0
2018-08-11T03:31:29.035Z,0
2018-08-11T03:32:38.194Z,0
2018-08-11T03:33:47.349Z,0
2018-08-11T03:34:56.837Z,0
2018-08-11T03:36:05.749Z,0
2018-08-11T03:37:14.633Z,0
2018-08-11T03:38:23.790Z,0
2018-08-11T03:39:33.233Z,0
2018-08-11T03:40:42.386Z,0
2018-08-11T03:41:51.798Z,0
2018-08-11T03:43:01.742Z,0
2018-08-11T03:44:10.911Z,0
2018-08-11T03:45:20.171Z,0
2018-08-11T03:46:29.581Z,0
2018-08-11T03:47:39.316Z,0
2018-08-11T03:48:48.473Z,0
2018-08-11T03:49:58.153Z,0
2018-08-11T03:51:07.616Z,0
2018-08-11T03:52:17.026Z,0
2018-08-11T03:53:26.448Z,0
2018-08-11T03:54:35.865Z,0
2018-08-11T03:55:45.306Z,0
2018-08-11T03:56:54.717Z,0
2018-08-11T03:58:03.890Z,0
2018-08-11T03:59:13.672Z,0
2018-08-11T04:00:22.819Z,0
2018-08-11T04:01:32.001Z,0
2018-08-11T04:02:41.712Z,0
2018-08-11T04:03:51.431Z,0
2018-08-11T04:05:00.851Z,0
2018-08-11T04:06:10.565Z,0
2018-08-11T04:07:20.271Z,0
2018-08-11T04:08:29.215Z,0
2018-08-11T04:09:38.133Z,0
2018-08-11T04:10:47.810Z,0
2018-08-11T04:11:57.242Z,0
2018-08-11T04:13:06.741Z,0
2018-08-11T04:14:15.906Z,0
2018-08-11T04:15:25.103Z,0
2018-08-11T04:16:34.513Z,0
2018-08-11T04:17:44.173Z,0
2018-08-11T04:18:53.330Z,0
2018-08-11T04:20:02.742Z,0
2018-08-11T04:21:12.415Z,0
2018-08-11T04:22:21.579Z,0
2018-08-11T04:23:30.728Z,0
2018-08-11T04:24:40.136Z,0
2018-08-11T04:25:49.542Z,0
2018-08-11T04:26:58.218Z,0
2018-08-11T04:28:07.119Z,0
2018-08-11T04:29:16.575Z,0
2018-08-11T04:30:26.230Z,0
2018-08-11T04:31:35.819Z,0
2018-08-11T04:32:44.718Z,0
2018-08-11T04:33:54.405Z,0
2018-08-11T04:35:03.556Z,0
2018-08-11T04:36:12.716Z,0
2018-08-11T04:37:22.133Z,0
2018-08-11T04:38:31.529Z,0
2018-08-11T04:39:41.186Z,0
2018-08-11T04:40:50.605Z,0
2018-08-11T04:42:00.765Z,0
2018-08-11T04:43:10.836Z,0
2018-08-11T04:44:20.019Z,0
2018-08-11T04:45:28.896Z,4
2018-08-11T04:46:38.042Z,4
2018-08-11T04:47:47.706Z,4
2018-08-11T04:48:56.862Z,0
2018-08-11T04:50:06.016Z,0
2018-08-11T04:51:15.174Z,0
2018-08-11T04:52:24.126Z,0
2018-08-11T04:53:33.807Z,4
2018-08-11T04:54:43.213Z,0
2018-08-11T04:55:52.412Z,0
2018-08-11T04:57:01.716Z,0
2018-08-11T04:58:10.674Z,4
2018-08-11T04:59:19.834Z,4
2018-08-11T05:00:28.987Z,4
2018-08-11T05:01:38.640Z,4
2018-08-11T05:02:48.343Z,4
2018-08-11T05:03:57.515Z,4
2018-08-11T05:05:06.918Z,4
2018-08-11T05:06:16.581Z,0
2018-08-11T05:07:25.988Z,0
2018-08-11T05:08:35.172Z,0
2018-08-11T05:09:44.688Z,4
2018-08-11T05:10:53.877Z,4
2018-08-11T05:12:03.030Z,4
2018-08-11T05:13:12.177Z,4
2018-08-11T05:14:21.319Z,4
2018-08-11T05:15:30.733Z,4
2018-08-11T05:16:39.645Z,4
2018-08-11T05:17:48.795Z,4
2018-08-11T05:18:58.209Z,0
2018-08-11T05:20:07.418Z,0
2018-08-11T05:21:16.827Z,4
2018-08-11T05:22:25.714Z,4
2018-08-11T05:23:34.642Z,4
2018-08-11T05:24:44.050Z,4
2018-08-11T05:25:53.734Z,4
2018-08-11T05:27:02.924Z,4
2018-08-11T05:28:12.871Z,12
2018-08-11T05:29:22.279Z,16
2018-08-11T05:30:31.697Z,16
2018-08-11T05:31:40.846Z,20
2018-08-11T05:32:49.994Z,20
2018-08-11T05:33:59.172Z,24
2018-08-11T05:35:08.591Z,28
2018-08-11T05:36:18.002Z,28
2018-08-11T05:37:27.472Z,28
2018-08-11T05:38:37.402Z,32
2018-08-11T05:39:47.062Z,32
2018-08-11T05:40:55.969Z,8
2018-08-11T05:42:05.630Z,4
2018-08-11T05:43:15.055Z,8
2018-08-11T05:44:24.213Z,24
2018-08-11T05:45:33.884Z,28
2018-08-11T05:46:43.573Z,32
2018-08-11T05:47:52.985Z,28
2018-08-11T05:49:02.430Z,24
2018-08-11T05:50:11.839Z,32
2018-08-11T05:51:21.306Z,28
2018-08-11T05:52:30.967Z,8
2018-08-11T05:53:39.871Z,16
2018-08-11T05:54:49.017Z,24
2018-08-11T05:55:58.668Z,28
2018-08-11T05:57:08.073Z,16
2018-08-11T05:58:17.216Z,28
2018-08-11T05:59:26.368Z,28
2018-08-11T06:00:35.520Z,12
2018-08-11T06:01:44.929Z,16
2018-08-11T06:02:54.357Z,4
2018-08-11T06:04:04.737Z,8
2018-08-11T06:05:14.007Z,8
2018-08-11T06:06:23.714Z,12
2018-08-11T06:07:32.930Z,12
2018-08-11T06:08:42.150Z,4
2018-08-11T06:09:51.114Z,8
2018-08-11T06:11:00.788Z,4
2018-08-11T06:12:10.032Z,8
2018-08-11T06:13:19.715Z,8
2018-08-11T06:14:29.151Z,12
2018-08-11T06:15:38.305Z,16
2018-08-11T06:16:47.756Z,20
2018-08-11T06:17:57.159Z,20
2018-08-11T06:19:06.559Z,8
2018-08-11T06:20:16.225Z,12
2018-08-11T06:21:26.143Z,16
2018-08-11T06:22:35.615Z,12
2018-08-11T06:23:44.775Z,12
2018-08-11T06:24:54.439Z,12
2018-08-11T06:26:03.628Z,12
2018-08-11T06:27:12.561Z,4
2018-08-11T06:28:22.236Z,4
2018-08-11T06:29:31.927Z,4
2018-08-11T06:30:41.341Z,4
2018-08-11T06:31:51.606Z,4
2018-08-11T06:33:01.163Z,4
2018-08-11T06:34:10.995Z,4
2018-08-11T06:35:20.689Z,4
2018-08-11T06:36:29.605Z,4
2018-08-11T06:37:38.251Z,4
2018-08-11T06:38:47.392Z,8
2018-08-11T06:39:57.118Z,12
2018-08-11T06:41:07.035Z,12
2018-08-11T06:42:17.008Z,16
2018-08-11T06:43:26.757Z,16
2018-08-11T06:44:35.657Z,16
2018-08-11T06:45:44.291Z,16
2018-08-11T06:46:54.776Z,12
2018-08-11T06:48:04.205Z,16
2018-08-11T06:49:13.150Z,16
2018-08-11T06:50:22.316Z,16
2018-08-11T06:51:31.763Z,20
2018-08-11T06:52:40.914Z,20
2018-08-11T06:53:50.090Z,16
2018-08-11T06:54:59.544Z,16
2018-08-11T06:56:08.431Z,8
2018-08-11T06:57:17.331Z,12
2018-08-11T06:58:26.761Z,12
2018-08-11T06:59:36.174Z,8
2018-08-11T07:00:45.844Z,8
2018-08-11T07:01:55.266Z,16
2018-08-11T07:03:03.915Z,20
2018-08-11T07:04:13.474Z,8
2018-08-11T07:05:22.635Z,20
2018-08-11T07:06:32.278Z,8
2018-08-11T07:07:41.913Z,4
2018-08-11T07:08:51.652Z,24
2018-08-11T07:10:01.068Z,12
2018-08-11T07:11:10.760Z,24
2018-08-11T07:12:19.676Z,24
2018-08-11T07:13:29.366Z,24
2018-08-11T07:14:38.790Z,8
2018-08-11T07:15:48.525Z,8
2018-08-11T07:16:57.958Z,28
2018-08-11T07:18:06.862Z,28
2018-08-11T07:19:15.810Z,28
2018-08-11T07:20:25.298Z,28
2018-08-11T07:21:34.457Z,32
2018-08-11T07:22:43.352Z,32
2018-08-11T07:23:52.289Z,32
2018-08-11T07:25:01.447Z,36
2018-08-11T07:26:10.611Z,32
2018-08-11T07:27:20.064Z,32
2018-08-11T07:28:29.864Z,36
2018-08-11T07:29:38.809Z,32
2018-08-11T07:30:48.263Z,36
2018-08-11T07:31:58.304Z,40
2018-08-11T07:33:07.794Z,40
2018-08-11T07:34:17.278Z,32
2018-08-11T07:35:26.763Z,20
2018-08-11T07:36:36.116Z,36
2018-08-11T07:37:45.973Z,36
2018-08-11T07:38:55.055Z,40
2018-08-11T07:40:04.073Z,36
2018-08-11T07:41:13.809Z,12
2018-08-11T07:42:22.985Z,12
2018-08-11T07:43:32.521Z,36
2018-08-11T07:44:41.719Z,12
2018-08-11T07:45:51.150Z,36
2018-08-11T07:47:00.600Z,40
2018-08-11T07:48:10.071Z,36
2018-08-11T07:49:19.303Z,36
2018-08-11T07:50:29.310Z,40
2018-08-11T07:51:39.067Z,20
2018-08-11T07:52:48.494Z,40
2018-08-11T07:53:58.188Z,36
2018-08-11T07:55:07.347Z,40
2018-08-11T07:56:16.551Z,40
2018-08-11T07:57:25.961Z,8
2018-08-11T07:58:35.391Z,8
2018-08-11T07:59:44.555Z,24
2018-08-11T08:00:53.708Z,8
2018-08-11T08:02:03.636Z,24
2018-08-11T08:03:12.811Z,8
2018-08-11T08:04:22.228Z,8
2018-08-11T08:05:31.650Z,36
2018-08-11T08:06:41.068Z,36
2018-08-11T08:07:51.072Z,40
2018-08-11T08:09:00.704Z,40
2018-08-11T08:10:10.444Z,40
2018-08-11T08:11:19.934Z,40
2018-08-11T08:12:29.635Z,40
2018-08-11T08:13:39.258Z,40
2018-08-11T08:14:49.401Z,40
2018-08-11T08:15:58.374Z,40
2018-08-11T08:17:07.810Z,40
2018-08-11T08:18:16.957Z,40
2018-08-11T08:19:26.332Z,40
2018-08-11T08:20:35.987Z,40
2018-08-11T08:21:46.052Z,44
2018-08-11T08:22:55.780Z,8
2018-08-11T08:24:05.070Z,28
2018-08-11T08:25:15.010Z,12
2018-08-11T08:26:25.451Z,12
2018-08-11T08:27:34.895Z,40
2018-08-11T08:28:44.569Z,8
2018-08-11T08:29:54.419Z,8
2018-08-11T08:31:03.890Z,44
2018-08-11T08:32:13.317Z,44
2018-08-11T08:33:22.514Z,40
2018-08-11T08:34:31.943Z,40
2018-08-11T08:35:41.415Z,44
2018-08-11T08:36:50.827Z,44
2018-08-11T08:37:59.736Z,44
2018-08-11T08:39:09.210Z,44
2018-08-11T08:40:18.354Z,44
2018-08-11T08:41:27.341Z,44
2018-08-11T08:42:35.992Z,44
2018-08-11T08:43:44.661Z,44
2018-08-11T08:44:53.925Z,40
2018-08-11T08:46:03.342Z,44
2018-08-11T08:47:12.496Z,44
2018-08-11T08:48:22.166Z,44
2018-08-11T08:49:31.638Z,44
2018-08-11T08:50:41.057Z,48
2018-08-11T08:51:50.657Z,48
2018-08-11T08:52:59.288Z,44
2018-08-11T08:54:08.183Z,44
2018-08-11T08:55:17.364Z,44
2018-08-11T08:56:26.792Z,44
2018-08-11T08:57:36.019Z,48
2018-08-11T08:58:45.188Z,44
2018-08-11T08:59:54.638Z,36
2018-08-11T09:01:04.111Z,48
2018-08-11T09:02:13.812Z,24
2018-08-11T09:03:22.719Z,16
2018-08-11T09:04:32.932Z,48
2018-08-11T09:05:43.030Z,44
2018-08-11T09:06:52.441Z,48
2018-08-11T09:08:01.489Z,48
2018-08-11T09:09:10.503Z,12
2018-08-11T09:10:19.952Z,44
2018-08-11T09:11:29.127Z,8
2018-08-11T09:12:38.064Z,48
2018-08-11T09:13:47.481Z,48
2018-08-11T09:14:57.149Z,44
2018-08-11T09:16:06.315Z,44
2018-08-11T09:17:15.464Z,48
2018-08-11T09:18:24.648Z,44
2018-08-11T09:19:34.309Z,48
2018-08-11T09:20:44.142Z,36
2018-08-11T09:21:53.059Z,44
2018-08-11T09:23:02.517Z,4
2018-08-11T09:24:11.426Z,0
2018-08-11T09:25:20.855Z,4
2018-08-11T09:26:30.843Z,4
2018-08-11T09:27:40.338Z,4
2018-08-11T09:28:49.229Z,4
2018-08-11T09:29:58.651Z,4
2018-08-11T09:31:08.107Z,0
2018-08-11T09:32:17.292Z,0
2018-08-11T09:33:26.540Z,4
2018-08-11T09:34:35.706Z,4
2018-08-11T09:35:45.375Z,4
2018-08-11T09:36:54.329Z,4
2018-08-11T09:38:04.000Z,16
2018-08-11T09:39:12.908Z,20
2018-08-11T09:40:22.074Z,4
2018-08-11T09:41:31.605Z,4
2018-08-11T09:42:41.270Z,8
2018-08-11T09:43:50.703Z,8
2018-08-11T09:45:00.373Z,8
2018-08-11T09:46:10.372Z,4
2018-08-11T09:47:19.800Z,8
2018-08-11T09:48:29.220Z,4
2018-08-11T09:49:37.891Z,4
2018-08-11T09:50:46.831Z,4
2018-08-11T09:51:55.824Z,4
2018-08-11T09:53:05.000Z,4
2018-08-11T09:54:14.432Z,4
2018-08-11T09:55:23.889Z,4
2018-08-11T09:56:33.297Z,0
2018-08-11T09:57:42.710Z,0
2018-08-11T09:58:52.646Z,0
2018-08-11T10:00:01.480Z,4
2018-08-11T10:01:10.129Z,8
2018-08-11T10:02:19.307Z,8
2018-08-11T10:03:28.530Z,8
2018-08-11T10:04:37.701Z,12
2018-08-11T10:05:46.853Z,12
2018-08-11T10:06:56.043Z,8
2018-08-11T10:08:05.460Z,8
2018-08-11T10:09:14.906Z,4
2018-08-11T10:10:24.377Z,8
2018-08-11T10:11:34.347Z,0
2018-08-11T10:12:43.283Z,8
2018-08-11T10:13:52.437Z,4
2018-08-11T10:15:01.871Z,8
2018-08-11T10:16:11.286Z,8
2018-08-11T10:17:20.941Z,8
2018-08-11T10:18:30.519Z,8
2018-08-11T10:19:40.495Z,8
2018-08-11T10:20:49.657Z,8
2018-08-11T10:21:58.556Z,8
2018-08-11T10:23:07.544Z,8
2018-08-11T10:24:17.227Z,4
2018-08-11T10:25:26.636Z,0
2018-08-11T10:26:35.873Z,4
2018-08-11T10:27:45.033Z,8
2018-08-11T10:28:54.694Z,8
2018-08-11T10:30:03.700Z,8
2018-08-11T10:31:12.945Z,8
2018-08-11T10:32:22.110Z,4
2018-08-11T10:33:31.517Z,4
2018-08-11T10:34:41.187Z,4
2018-08-11T10:35:50.347Z,4
2018-08-11T10:37:00.026Z,4
2018-08-11T10:38:09.193Z,12
2018-08-11T10:39:18.880Z,12
2018-08-11T10:40:29.072Z,4
2018-08-11T10:41:38.742Z,4
2018-08-11T10:42:48.134Z,12
2018-08-11T10:43:57.327Z,8
2018-08-11T10:45:06.309Z,4
2018-08-11T10:46:15.232Z,4
2018-08-11T10:47:24.160Z,4
2018-08-11T10:48:33.853Z,8
2018-08-11T10:49:43.260Z,8
2018-08-11T10:50:52.421Z,8
2018-08-11T10:52:01.315Z,8
2018-08-11T10:53:11.445Z,8
2018-08-11T10:54:21.271Z,8
2018-08-11T10:55:30.683Z,4
2018-08-11T10:56:39.833Z,4
2018-08-11T10:57:49.015Z,0
2018-08-11T10:58:57.917Z,0
2018-08-11T11:00:07.085Z,4
2018-08-11T11:01:16.498Z,4
2018-08-11T11:02:26.396Z,4
2018-08-11T11:03:36.497Z,8
2018-08-11T11:04:45.675Z,8
2018-08-11T11:05:55.098Z,8
2018-08-11T11:07:04.513Z,4
2018-08-11T11:08:13.156Z,4
2018-08-11T11:09:22.595Z,0
2018-08-11T11:10:32.019Z,0
2018-08-11T11:11:41.228Z,0
2018-08-11T11:12:50.686Z,4
2018-08-11T11:13:59.859Z,4
2018-08-11T11:15:09.012Z,4
2018-08-11T11:16:18.485Z,4
2018-08-11T11:17:27.879Z,4
2018-08-11T11:18:37.743Z,4
2018-08-11T11:19:47.182Z,4
2018-08-11T11:20:57.198Z,4
2018-08-11T11:22:06.468Z,4
2018-08-11T11:23:15.615Z,4
2018-08-11T11:24:25.335Z,4
2018-08-11T11:25:35.023Z,4
2018-08-11T11:26:44.426Z,0
2018-08-11T11:27:54.090Z,0
2018-08-11T11:29:03.532Z,0
2018-08-11T11:30:12.940Z,0
2018-08-11T11:31:21.841Z,0
2018-08-11T11:32:30.471Z,0
2018-08-11T11:33:39.889Z,4
2018-08-11T11:34:49.056Z,4
2018-08-11T11:35:58.460Z,4
2018-08-11T11:37:07.398Z,4
2018-08-11T11:38:17.147Z,4
2018-08-11T11:39:25.898Z,4
2018-08-11T11:40:34.822Z,0
2018-08-11T11:41:44.016Z,4
2018-08-11T11:42:53.182Z,4
2018-08-11T11:44:02.598Z,4
2018-08-11T11:45:11.239Z,4
2018-08-11T11:46:20.412Z,4
2018-08-11T11:47:29.585Z,4
2018-08-11T11:48:39.027Z,4
2018-08-11T11:49:48.462Z,4
2018-08-11T11:50:58.129Z,4
2018-08-11T11:52:07.809Z,0
2018-08-11T11:53:17.480Z,4
2018-08-11T11:54:26.922Z,4
2018-08-11T11:55:36.080Z,0
2018-08-11T11:56:45.275Z,0
2018-08-11T11:57:54.471Z,0
2018-08-11T11:59:03.369Z,4
2018-08-11T12:00:12.787Z,4
2018-08-11T12:01:22.025Z,4
2018-08-11T12:02:30.919Z,4
2018-08-11T12:03:40.592Z,4
2018-08-11T12:04:49.751Z,0
2018-08-11T12:06:00.003Z,4
2018-08-11T12:07:09.154Z,0
2018-08-11T12:08:18.039Z,4
2018-08-11T12:09:26.955Z,4
2018-08-11T12:10:35.905Z,4
2018-08-11T12:11:45.043Z,4
2018-08-11T12:12:54.450Z,4
2018-08-11T12:14:04.183Z,4
2018-08-11T12:15:14.120Z,4
2018-08-11T12:16:23.046Z,4
2018-08-11T12:17:31.964Z,4
2018-08-11T12:18:41.369Z,4
2018-08-11T12:19:50.304Z,4
2018-08-11T12:20:59.230Z,4
2018-08-11T12:22:08.417Z,4
2018-08-11T12:23:17.828Z,4
2018-08-11T12:24:27.541Z,8
2018-08-11T12:25:37.218Z,4
2018-08-11T12:26:46.377Z,4
2018-08-11T12:27:55.560Z,4
2018-08-11T12:29:05.025Z,4
2018-08-11T12:30:14.484Z,8
2018-08-11T12:31:23.660Z,4
2018-08-11T12:32:33.070Z,0
2018-08-11T12:33:42.476Z,4
2018-08-11T12:34:52.168Z,0
2018-08-11T12:36:01.923Z,8
2018-08-11T12:37:10.955Z,4
2018-08-11T12:38:20.435Z,4
2018-08-11T12:39:29.585Z,8
2018-08-11T12:40:38.227Z,8
2018-08-11T12:41:47.373Z,4
2018-08-11T12:42:56.265Z,4
2018-08-11T12:44:05.951Z,8
2018-08-11T12:45:15.348Z,8
2018-08-11T12:46:24.505Z,8
2018-08-11T12:47:33.667Z,8
2018-08-11T12:48:42.822Z,8
2018-08-11T12:49:51.980Z,8
2018-08-11T12:51:01.140Z,8
2018-08-11T12:52:10.048Z,8
2018-08-11T12:53:19.502Z,8
2018-08-11T12:54:28.909Z,8
2018-08-11T12:55:38.481Z,8
2018-08-11T12:56:47.378Z,8
2018-08-11T12:57:56.524Z,8
2018-08-11T12:59:06.188Z,12
2018-08-11T13:00:15.099Z,12
2018-08-11T13:01:24.527Z,12
2018-08-11T13:02:33.426Z,12
2018-08-11T13:03:42.836Z,8
2018-08-11T13:04:52.327Z,8
2018-08-11T13:06:01.725Z,0
2018-08-11T13:07:11.248Z,0
2018-08-11T13:08:20.411Z,12
2018-08-11T13:10:01.954Z,12
2018-08-11T13:11:11.654Z,12
2018-08-11T13:12:21.617Z,4
2018-08-11T13:13:30.789Z,8
2018-08-11T13:14:40.239Z,12
2018-08-11T13:15:50.180Z,12
2018-08-11T13:16:59.328Z,12
2018-08-11T13:18:08.754Z,12
2018-08-11T13:19:18.447Z,12
2018-08-11T13:20:27.614Z,12
2018-08-11T13:21:36.512Z,12
2018-08-11T13:22:45.918Z,12
2018-08-11T13:23:54.799Z,12
2018-08-11T13:25:04.218Z,12
2018-08-11T13:26:13.909Z,12
2018-08-11T13:27:23.054Z,12
2018-08-11T13:28:31.967Z,12
2018-08-11T13:29:41.439Z,12
2018-08-11T13:30:50.328Z,12
2018-08-11T13:31:59.762Z,12
2018-08-11T13:33:08.912Z,12
2018-08-11T13:34:18.095Z,12
2018-08-11T13:35:27.532Z,12
2018-08-11T13:36:37.362Z,12
2018-08-11T13:37:47.036Z,12
2018-08-11T13:38:56.483Z,12
2018-08-11T13:40:05.623Z,16
2018-08-11T13:41:14.775Z,8
2018-08-11T13:42:23.665Z,12
2018-08-11T13:43:32.806Z,12
2018-08-11T13:44:42.698Z,16
2018-08-11T13:45:52.235Z,16
2018-08-11T13:47:01.590Z,16
2018-08-11T13:48:11.244Z,16
2018-08-11T13:49:20.646Z,16
2018-08-11T13:50:30.549Z,16
2018-08-11T13:51:40.083Z,16
2018-08-11T13:52:49.308Z,16
2018-08-11T13:53:58.721Z,16
2018-08-11T13:55:07.977Z,12
2018-08-11T13:56:18.034Z,12
2018-08-11T13:57:27.963Z,12
2018-08-11T13:58:37.630Z,12
2018-08-11T13:59:46.778Z,16
2018-08-11T14:00:56.186Z,16
2018-08-11T14:02:05.189Z,16
2018-08-11T14:03:15.117Z,16
2018-08-11T14:04:24.521Z,16
2018-08-11T14:05:33.933Z,0
2018-08-11T14:06:43.597Z,16
2018-08-11T14:07:52.746Z,16
2018-08-11T14:09:02.413Z,12
2018-08-11T14:10:11.855Z,16
2018-08-11T14:11:21.325Z,12
2018-08-11T14:12:30.477Z,16
2018-08-11T14:13:40.173Z,16
2018-08-11T14:14:49.703Z,16
2018-08-11T14:15:59.187Z,12
2018-08-11T14:17:08.586Z,12
2018-08-11T14:18:17.747Z,16
2018-08-11T14:19:26.906Z,12
2018-08-11T14:20:36.493Z,12
2018-08-11T14:21:45.411Z,12
2018-08-11T14:22:54.822Z,12
2018-08-11T14:24:04.230Z,12
2018-08-11T14:25:13.707Z,12
2018-08-11T14:26:22.629Z,12
2018-08-11T14:27:32.041Z,12
2018-08-11T14:28:41.188Z,12
2018-08-11T14:29:50.351Z,12
2018-08-11T14:31:00.000Z,4
2018-08-11T14:32:09.146Z,4
2018-08-11T14:33:18.858Z,8
2018-08-11T14:34:28.420Z,8
2018-08-11T14:35:38.198Z,4
2018-08-11T14:36:47.871Z,12
2018-08-11T14:37:57.337Z,24
2018-08-11T14:39:06.947Z,60
2018-08-11T14:40:16.640Z,64
2018-08-11T14:41:25.541Z,56
2018-08-11T14:42:34.438Z,56
2018-08-11T14:43:44.790Z,56
2018-08-11T14:44:54.050Z,52
2018-08-11T14:46:03.734Z,60
2018-08-11T14:47:13.137Z,52
2018-08-11T14:48:22.619Z,44
2018-08-11T14:49:32.556Z,52
2018-08-11T14:50:42.099Z,48
2018-08-11T14:51:52.363Z,48
2018-08-11T14:53:02.765Z,40
2018-08-11T14:54:12.608Z,44
2018-08-11T14:55:22.278Z,44
2018-08-11T14:56:31.589Z,36
2018-08-11T14:57:41.018Z,36
2018-08-11T14:58:50.159Z,36
2018-08-11T14:59:59.064Z,36
2018-08-11T15:01:08.461Z,36
2018-08-11T15:02:17.616Z,32
2018-08-11T15:03:27.051Z,32
2018-08-11T15:04:36.471Z,32
2018-08-11T15:05:45.898Z,28
2018-08-11T15:06:55.302Z,24
2018-08-11T15:08:04.469Z,16
2018-08-11T15:09:13.367Z,16
2018-08-11T15:10:23.298Z,16
2018-08-11T15:11:32.194Z,8
2018-08-11T15:12:41.356Z,8
2018-08-11T15:13:50.251Z,12
2018-08-11T15:14:59.149Z,12
2018-08-11T15:16:08.048Z,12
2018-08-11T15:17:17.289Z,12
2018-08-11T15:18:26.480Z,8
2018-08-11T15:19:35.268Z,12
2018-08-11T15:20:44.159Z,8
2018-08-11T15:21:54.098Z,8
2018-08-11T15:23:03.536Z,8
2018-08-11T15:24:12.695Z,8
2018-08-11T15:25:21.928Z,8
2018-08-11T15:26:31.430Z,8
2018-08-11T15:27:40.583Z,8
2018-08-11T15:28:49.752Z,8
2018-08-11T15:29:59.170Z,8
2018-08-11T15:31:08.615Z,8
2018-08-11T15:32:17.575Z,8
2018-08-11T15:33:27.171Z,8
2018-08-11T15:34:36.675Z,8
2018-08-11T15:35:45.822Z,8
2018-08-11T15:36:55.241Z,8
2018-08-11T15:38:04.671Z,8
2018-08-11T15:39:13.567Z,8
2018-08-11T15:40:22.205Z,4
2018-08-11T15:41:31.704Z,4
2018-08-11T15:42:40.597Z,8
2018-08-11T15:43:49.298Z,4
2018-08-11T15:44:58.996Z,8
2018-08-11T15:46:07.901Z,8
2018-08-11T15:47:16.800Z,8
2018-08-11T15:48:25.693Z,8
2018-08-11T15:49:35.376Z,8
2018-08-11T15:50:45.065Z,8
2018-08-11T15:51:54.516Z,8
2018-08-11T15:53:03.983Z,8
2018-08-11T15:54:13.867Z,8
2018-08-11T15:55:23.611Z,8
2018-08-11T15:56:33.039Z,8
2018-08-11T15:57:42.710Z,8
2018-08-11T15:58:52.383Z,8
2018-08-11T16:00:01.533Z,8
2018-08-11T16:01:11.223Z,8
2018-08-11T16:02:20.632Z,8
2018-08-11T16:03:30.043Z,8
2018-08-11T16:04:39.224Z,8
2018-08-11T16:05:48.357Z,8
2018-08-11T16:06:57.237Z,4
2018-08-11T16:08:06.927Z,8
2018-08-11T16:09:16.374Z,4
2018-08-11T16:10:25.783Z,4
2018-08-11T16:11:35.210Z,8
2018-08-11T16:12:44.961Z,8
2018-08-11T16:13:54.139Z,4
2018-08-11T16:15:03.803Z,8
2018-08-11T16:16:13.241Z,8
2018-08-11T16:17:22.641Z,8
2018-08-11T16:18:31.808Z,8
2018-08-11T16:19:40.713Z,8
2018-08-11T16:20:49.630Z,8
2018-08-11T16:21:58.267Z,4
2018-08-11T16:23:07.175Z,4
2018-08-11T16:24:16.581Z,8
2018-08-11T16:25:25.978Z,8
2018-08-11T16:26:35.135Z,8
2018-08-11T16:27:44.531Z,4
2018-08-11T16:28:54.202Z,4
2018-08-11T16:30:03.618Z,4
2018-08-11T16:31:13.109Z,8
2018-08-11T16:32:22.521Z,4
2018-08-11T16:33:32.183Z,4
2018-08-11T16:34:41.629Z,4
2018-08-11T16:35:50.814Z,4
2018-08-11T16:36:59.993Z,4
2018-08-11T16:38:09.410Z,4
2018-08-11T16:39:22.349Z,4
2018-08-11T16:40:32.031Z,4
2018-08-11T16:41:41.186Z,4
2018-08-11T16:42:50.598Z,4
2018-08-11T16:43:59.490Z,4
2018-08-11T16:45:08.645Z,4
2018-08-11T16:46:18.061Z,4
2018-08-11T16:47:27.205Z,4
2018-08-11T16:48:36.609Z,4
2018-08-11T16:49:45.762Z,4
2018-08-11T16:50:55.211Z,4
2018-08-11T16:52:04.103Z,4
2018-08-11T16:53:13.788Z,4
2018-08-11T16:54:22.939Z,4
2018-08-11T16:55:32.084Z,4